Albany, Louisiana
Current Conditions -  °F | °C
As of 10:35 AM on Saturday 25 Oct 2014 (Local Time) from KHDC Reporting Station
Clear Clear  
Wind Chill: 70°   Ceiling: Unl
Heat Index: 70°   Visibility: 10mi
Dew Point: 50°   Wind: 6mph
Humidity: 49%   Direction: 50°NE
Pressure: 30.18"   Gusts: NA
Location:  30.5°N, 90.58°W
Report Text: KHDC 251535Z AUTO 05005KT 10SM CLR 21/10 A3018 RMK AO2
Loading
Personal Weather Stations






























Interactive Weather Map
Tropical Storm Tracking
New forecast layout! Learn more

10-Day Weather Forecast

Advertisements
Track Severe Weather on mobile